sensor_id;sensor_type;location;lat;lon;timestamp;P1;durP1;ratioP1;P2;durP2;ratioP2
57889;SDS011;43707;50.184;18.966;2023-05-02T07:39:01;4.80;;;1.90;;
57889;SDS011;43707;50.184;18.966;2023-05-02T07:41:26;4.80;;;1.70;;
57889;SDS011;43707;50.184;18.966;2023-05-02T07:43:52;5.00;;;1.80;;
57889;SDS011;43707;50.184;18.966;2023-05-02T07:46:17;5.50;;;2.10;;
57889;SDS011;43707;50.184;18.966;2023-05-02T07:48:43;4.50;;;2.30;;
57889;SDS011;43707;50.184;18.966;2023-05-02T07:51:08;3.10;;;2.00;;
57889;SDS011;43707;50.184;18.966;2023-05-02T07:53:39;8.10;;;2.60;;
57889;SDS011;43707;50.184;18.966;2023-05-02T07:56:06;2.10;;;1.50;;
57889;SDS011;43707;50.184;18.966;2023-05-02T07:59:44;5.40;;;2.20;;
57889;SDS011;43707;50.184;18.966;2023-05-02T08:02:22;4.40;;;2.70;;
57889;SDS011;43707;50.184;18.966;2023-05-02T08:04:48;6.60;;;3.20;;
57889;SDS011;43707;50.184;18.966;2023-05-02T08:07:14;5.40;;;2.60;;
57889;SDS011;43707;50.184;18.966;2023-05-02T08:09:39;4.50;;;2.60;;
57889;SDS011;43707;50.184;18.966;2023-05-02T08:12:05;2.80;;;2.30;;
57889;SDS011;43707;50.184;18.966;2023-05-02T08:14:30;5.30;;;2.40;;
57889;SDS011;43707;50.184;18.966;2023-05-02T08:16:57;3.30;;;2.30;;
57889;SDS011;43707;50.184;18.966;2023-05-02T08:19:23;6.50;;;2.90;;
57889;SDS011;43707;50.184;18.966;2023-05-02T08:21:49;4.90;;;3.10;;
57889;SDS011;43707;50.184;18.966;2023-05-02T08:24:14;6.20;;;2.60;;
57889;SDS011;43707;50.184;18.966;2023-05-02T08:26:40;6.50;;;3.70;;
57889;SDS011;43707;50.184;18.966;2023-05-02T08:29:05;8.10;;;3.00;;
57889;SDS011;43707;50.184;18.966;2023-05-02T08:31:31;11.40;;;2.60;;
57889;SDS011;43707;50.184;18.966;2023-05-02T08:33:56;5.20;;;2.40;;
57889;SDS011;43707;50.184;18.966;2023-05-02T08:36:23;8.50;;;2.30;;
57889;SDS011;43707;50.184;18.966;2023-05-02T08:38:49;3.10;;;1.80;;
57889;SDS011;43707;50.184;18.966;2023-05-02T08:41:15;2.40;;;1.90;;
57889;SDS011;43707;50.184;18.966;2023-05-02T08:43:42;2.80;;;2.00;;
57889;SDS011;43707;50.184;18.966;2023-05-02T08:46:11;8.60;;;2.60;;
57889;SDS011;43707;50.184;18.966;2023-05-02T08:48:39;3.60;;;1.50;;
57889;SDS011;43707;50.184;18.966;2023-05-02T08:51:10;2.30;;;1.50;;
57889;SDS011;43707;50.184;18.966;2023-05-02T08:53:37;3.10;;;1.70;;
57889;SDS011;43707;50.184;18.966;2023-05-02T08:56:05;6.60;;;2.50;;
57889;SDS011;43707;50.184;18.966;2023-05-02T08:58:31;3.30;;;1.80;;
57889;SDS011;43707;50.184;18.966;2023-05-02T09:01:01;3.60;;;1.60;;
57889;SDS011;43707;50.184;18.966;2023-05-02T09:03:35;3.30;;;1.60;;
57889;SDS011;43707;50.184;18.966;2023-05-02T09:06:11;6.90;;;1.80;;
57889;SDS011;43707;50.184;18.966;2023-05-02T09:08:42;8.40;;;2.20;;
57889;SDS011;43707;50.184;18.966;2023-05-02T09:11:11;4.80;;;1.60;;
57889;SDS011;43707;50.184;18.966;2023-05-02T09:13:38;4.60;;;1.70;;
57889;SDS011;43707;50.184;18.966;2023-05-02T09:16:05;5.20;;;3.30;;
57889;SDS011;43707;50.184;18.966;2023-05-02T09:21:11;3.00;;;2.40;;
57889;SDS011;43707;50.184;18.966;2023-05-02T09:23:41;2.80;;;2.00;;
57889;SDS011;43707;50.184;18.966;2023-05-02T09:26:17;4.60;;;1.70;;
57889;SDS011;43707;50.184;18.966;2023-05-02T09:31:11;1.70;;;1.40;;
57889;SDS011;43707;50.184;18.966;2023-05-02T09:33:38;4.50;;;1.50;;
57889;SDS011;43707;50.184;18.966;2023-05-02T09:36:05;3.10;;;1.50;;
57889;SDS011;43707;50.184;18.966;2023-05-02T09:38:32;2.10;;;1.70;;
57889;SDS011;43707;50.184;18.966;2023-05-02T09:40:58;3.50;;;1.70;;
57889;SDS011;43707;50.184;18.966;2023-05-02T09:46:24;3.00;;;1.70;;
57889;SDS011;43707;50.184;18.966;2023-05-02T09:49:14;3.50;;;2.00;;
57889;SDS011;43707;50.184;18.966;2023-05-02T09:52:08;3.60;;;1.60;;
57889;SDS011;43707;50.184;18.966;2023-05-02T09:54:35;2.60;;;1.70;;
57889;SDS011;43707;50.184;18.966;2023-05-02T10:36:58;2.90;;;1.60;;
57889;SDS011;43707;50.184;18.966;2023-05-02T10:39:27;3.30;;;2.50;;
57889;SDS011;43707;50.184;18.966;2023-05-02T10:41:54;3.80;;;2.40;;
57889;SDS011;43707;50.184;18.966;2023-05-02T10:44:31;3.30;;;3.10;;
57889;SDS011;43707;50.184;18.966;2023-05-02T10:47:19;3.50;;;3.20;;
57889;SDS011;43707;50.184;18.966;2023-05-02T11:37:42;4.30;;;3.90;;
57889;SDS011;43707;50.184;18.966;2023-05-02T12:15:50;6.10;;;5.30;;
57889;SDS011;43707;50.184;18.966;2023-05-02T12:21:47;10.10;;;5.10;;
57889;SDS011;43707;50.184;18.966;2023-05-02T12:31:09;5.00;;;4.50;;
57889;SDS011;43707;50.184;18.966;2023-05-02T12:33:57;6.70;;;5.20;;
57889;SDS011;43707;50.184;18.966;2023-05-02T12:37:05;6.50;;;4.40;;
57889;SDS011;43707;50.184;18.966;2023-05-02T12:42:07;5.40;;;4.20;;
57889;SDS011;43707;50.184;18.966;2023-05-02T12:44:37;7.10;;;6.50;;
57889;SDS011;43707;50.184;18.966;2023-05-02T12:47:04;7.10;;;3.80;;
57889;SDS011;43707;50.184;18.966;2023-05-02T12:49:31;4.00;;;3.40;;
57889;SDS011;43707;50.184;18.966;2023-05-02T12:51:57;5.60;;;3.20;;
57889;SDS011;43707;50.184;18.966;2023-05-02T12:54:23;5.20;;;3.40;;
57889;SDS011;43707;50.184;18.966;2023-05-02T12:56:50;4.60;;;4.20;;
57889;SDS011;43707;50.184;18.966;2023-05-02T12:59:29;4.20;;;3.60;;
57889;SDS011;43707;50.184;18.966;2023-05-02T13:01:56;3.90;;;3.30;;
57889;SDS011;43707;50.184;18.966;2023-05-02T13:04:38;4.50;;;3.90;;
57889;SDS011;43707;50.184;18.966;2023-05-02T13:07:05;3.60;;;3.30;;
57889;SDS011;43707;50.184;18.966;2023-05-02T13:09:31;3.80;;;2.80;;
57889;SDS011;43707;50.184;18.966;2023-05-02T13:11:57;4.30;;;3.60;;
57889;SDS011;43707;50.184;18.966;2023-05-02T13:14:27;31.70;;;19.90;;
57889;SDS011;43707;50.184;18.966;2023-05-02T13:16:53;5.10;;;4.20;;
57889;SDS011;43707;50.184;18.966;2023-05-02T13:19:19;4.30;;;2.70;;
57889;SDS011;43707;50.184;18.966;2023-05-02T13:21:45;3.20;;;2.90;;
57889;SDS011;43707;50.184;18.966;2023-05-02T13:24:11;4.10;;;3.00;;
57889;SDS011;43707;50.184;18.966;2023-05-02T13:26:37;2.70;;;2.50;;
57889;SDS011;43707;50.184;18.966;2023-05-02T13:29:04;3.10;;;2.60;;
57889;SDS011;43707;50.184;18.966;2023-05-02T13:31:30;3.10;;;2.60;;
57889;SDS011;43707;50.184;18.966;2023-05-02T13:33:55;2.70;;;2.50;;
57889;SDS011;43707;50.184;18.966;2023-05-02T13:36:21;4.40;;;2.70;;
57889;SDS011;43707;50.184;18.966;2023-05-02T13:38:48;2.60;;;2.40;;
57889;SDS011;43707;50.184;18.966;2023-05-02T13:41:14;3.20;;;2.90;;
57889;SDS011;43707;50.184;18.966;2023-05-02T13:43:39;6.80;;;5.60;;
57889;SDS011;43707;50.184;18.966;2023-05-02T13:46:05;5.10;;;2.40;;
57889;SDS011;43707;50.184;18.966;2023-05-02T13:48:30;2.20;;;1.90;;
57889;SDS011;43707;50.184;18.966;2023-05-02T13:50:56;3.60;;;2.50;;
57889;SDS011;43707;50.184;18.966;2023-05-02T13:53:22;2.60;;;1.80;;
57889;SDS011;43707;50.184;18.966;2023-05-02T13:55:48;4.60;;;4.20;;
57889;SDS011;43707;50.184;18.966;2023-05-02T13:58:13;5.50;;;4.70;;
57889;SDS011;43707;50.184;18.966;2023-05-02T14:00:39;2.20;;;2.00;;
57889;SDS011;43707;50.184;18.966;2023-05-02T14:03:04;2.60;;;2.00;;
57889;SDS011;43707;50.184;18.966;2023-05-02T14:05:30;2.80;;;2.10;;
57889;SDS011;43707;50.184;18.966;2023-05-02T14:07:56;3.40;;;2.20;;
57889;SDS011;43707;50.184;18.966;2023-05-02T14:10:21;4.00;;;2.80;;
57889;SDS011;43707;50.184;18.966;2023-05-02T14:12:47;2.20;;;2.00;;
57889;SDS011;43707;50.184;18.966;2023-05-02T14:15:12;3.30;;;1.80;;
57889;SDS011;43707;50.184;18.966;2023-05-02T14:17:38;3.30;;;1.50;;
57889;SDS011;43707;50.184;18.966;2023-05-02T14:20:04;2.20;;;1.60;;
57889;SDS011;43707;50.184;18.966;2023-05-02T14:22:30;2.40;;;1.50;;
57889;SDS011;43707;50.184;18.966;2023-05-02T14:24:56;2.30;;;1.40;;
57889;SDS011;43707;50.184;18.966;2023-05-02T14:27:21;1.20;;;1.10;;
57889;SDS011;43707;50.184;18.966;2023-05-02T14:29:49;1.80;;;1.40;;
57889;SDS011;43707;50.184;18.966;2023-05-02T14:32:15;1.30;;;1.10;;
57889;SDS011;43707;50.184;18.966;2023-05-02T14:34:40;1.70;;;1.60;;
57889;SDS011;43707;50.184;18.966;2023-05-02T14:37:06;2.40;;;1.30;;
57889;SDS011;43707;50.184;18.966;2023-05-02T14:39:33;1.40;;;1.20;;
57889;SDS011;43707;50.184;18.966;2023-05-02T14:42:06;2.10;;;1.60;;
57889;SDS011;43707;50.184;18.966;2023-05-02T14:44:52;1.80;;;1.40;;
57889;SDS011;43707;50.184;18.966;2023-05-02T14:47:17;2.10;;;1.50;;
57889;SDS011;43707;50.184;18.966;2023-05-02T14:49:43;3.60;;;1.50;;
57889;SDS011;43707;50.184;18.966;2023-05-02T14:52:09;2.00;;;1.30;;
57889;SDS011;43707;50.184;18.966;2023-05-02T14:54:35;2.00;;;1.30;;
57889;SDS011;43707;50.184;18.966;2023-05-02T14:57:01;3.40;;;2.00;;
57889;SDS011;43707;50.184;18.966;2023-05-02T14:59:30;1.80;;;1.50;;
57889;SDS011;43707;50.184;18.966;2023-05-02T15:01:56;5.70;;;2.10;;
57889;SDS011;43707;50.184;18.966;2023-05-02T15:04:21;3.30;;;1.70;;
57889;SDS011;43707;50.184;18.966;2023-05-02T15:09:51;8.00;;;3.40;;
57889;SDS011;43707;50.184;18.966;2023-05-02T15:15:45;3.10;;;2.40;;
57889;SDS011;43707;50.184;18.966;2023-05-02T15:18:37;2.40;;;1.60;;
57889;SDS011;43707;50.184;18.966;2023-05-02T15:21:23;2.80;;;2.00;;
57889;SDS011;43707;50.184;18.966;2023-05-02T15:24:44;2.30;;;2.10;;
57889;SDS011;43707;50.184;18.966;2023-05-02T15:27:13;6.40;;;1.80;;
57889;SDS011;43707;50.184;18.966;2023-05-02T15:32:39;2.50;;;1.90;;
57889;SDS011;43707;50.184;18.966;2023-05-02T15:38:36;3.30;;;2.30;;
57889;SDS011;43707;50.184;18.966;2023-05-02T15:45:10;5.00;;;2.50;;
57889;SDS011;43707;50.184;18.966;2023-05-02T15:47:39;3.30;;;2.50;;
57889;SDS011;43707;50.184;18.966;2023-05-02T15:55:57;3.20;;;2.60;;
57889;SDS011;43707;50.184;18.966;2023-05-02T15:58:41;3.10;;;2.00;;
57889;SDS011;43707;50.184;18.966;2023-05-02T16:01:11;8.20;;;2.50;;
57889;SDS011;43707;50.184;18.966;2023-05-02T16:04:03;4.00;;;2.60;;
57889;SDS011;43707;50.184;18.966;2023-05-02T16:12:38;2.80;;;2.30;;
57889;SDS011;43707;50.184;18.966;2023-05-02T16:15:47;3.20;;;2.40;;
57889;SDS011;43707;50.184;18.966;2023-05-02T16:21:50;8.20;;;2.30;;
57889;SDS011;43707;50.184;18.966;2023-05-02T16:36:28;8.50;;;4.50;;
57889;SDS011;43707;50.184;18.966;2023-05-02T16:39:11;10.40;;;5.90;;
57889;SDS011;43707;50.184;18.966;2023-05-02T16:44:42;5.60;;;4.60;;
57889;SDS011;43707;50.184;18.966;2023-05-02T16:47:23;8.90;;;6.60;;
57889;SDS011;43707;50.184;18.966;2023-05-02T16:53:13;8.70;;;4.90;;
57889;SDS011;43707;50.184;18.966;2023-05-02T16:56:00;5.70;;;4.10;;
57889;SDS011;43707;50.184;18.966;2023-05-02T16:58:51;5.00;;;4.30;;
57889;SDS011;43707;50.184;18.966;2023-05-02T17:04:36;9.10;;;4.60;;
57889;SDS011;43707;50.184;18.966;2023-05-02T17:07:46;10.00;;;5.10;;
57889;SDS011;43707;50.184;18.966;2023-05-02T17:10:48;8.80;;;5.40;;
57889;SDS011;43707;50.184;18.966;2023-05-02T17:19:19;8.20;;;3.90;;
57889;SDS011;43707;50.184;18.966;2023-05-02T17:21:56;6.50;;;4.50;;
57889;SDS011;43707;50.184;18.966;2023-05-02T17:25:06;5.50;;;4.10;;
57889;SDS011;43707;50.184;18.966;2023-05-02T17:36:39;6.60;;;3.60;;
57889;SDS011;43707;50.184;18.966;2023-05-02T17:39:13;5.10;;;3.70;;
57889;SDS011;43707;50.184;18.966;2023-05-02T17:56:05;4.70;;;4.10;;
57889;SDS011;43707;50.184;18.966;2023-05-02T17:58:35;5.60;;;4.10;;
57889;SDS011;43707;50.184;18.966;2023-05-02T18:01:06;7.50;;;4.20;;
57889;SDS011;43707;50.184;18.966;2023-05-02T18:03:33;7.10;;;4.70;;
57889;SDS011;43707;50.184;18.966;2023-05-02T18:05:59;13.20;;;6.10;;
57889;SDS011;43707;50.184;18.966;2023-05-02T18:08:29;9.20;;;5.30;;
57889;SDS011;43707;50.184;18.966;2023-05-02T18:10:57;16.70;;;7.00;;
57889;SDS011;43707;50.184;18.966;2023-05-02T18:13:25;13.40;;;6.90;;
57889;SDS011;43707;50.184;18.966;2023-05-02T18:15:58;13.60;;;7.40;;
57889;SDS011;43707;50.184;18.966;2023-05-02T18:18:26;32.40;;;13.80;;
57889;SDS011;43707;50.184;18.966;2023-05-02T18:20:52;90.80;;;34.00;;
57889;SDS011;43707;50.184;18.966;2023-05-02T18:23:19;108.50;;;42.80;;
57889;SDS011;43707;50.184;18.966;2023-05-02T18:25:50;74.40;;;32.10;;
57889;SDS011;43707;50.184;18.966;2023-05-02T18:28:15;49.40;;;21.30;;
57889;SDS011;43707;50.184;18.966;2023-05-02T18:30:50;29.70;;;16.20;;
57889;SDS011;43707;50.184;18.966;2023-05-02T18:34:14;24.60;;;13.20;;
57889;SDS011;43707;50.184;18.966;2023-05-02T18:36:44;20.50;;;12.20;;
57889;SDS011;43707;50.184;18.966;2023-05-02T18:45:33;31.50;;;17.00;;
57889;SDS011;43707;50.184;18.966;2023-05-02T18:52:00;41.30;;;24.40;;
57889;SDS011;43707;50.184;18.966;2023-05-02T18:54:28;27.30;;;17.50;;
57889;SDS011;43707;50.184;18.966;2023-05-02T18:56:55;33.50;;;23.00;;
57889;SDS011;43707;50.184;18.966;2023-05-02T18:59:22;30.50;;;22.00;;
57889;SDS011;43707;50.184;18.966;2023-05-02T19:01:53;37.80;;;22.50;;
57889;SDS011;43707;50.184;18.966;2023-05-02T19:04:20;37.70;;;21.60;;
57889;SDS011;43707;50.184;18.966;2023-05-02T19:06:49;40.20;;;24.10;;
57889;SDS011;43707;50.184;18.966;2023-05-02T19:09:20;76.50;;;38.10;;
57889;SDS011;43707;50.184;18.966;2023-05-02T19:11:48;62.10;;;30.80;;
57889;SDS011;43707;50.184;18.966;2023-05-02T19:14:14;56.00;;;29.10;;
57889;SDS011;43707;50.184;18.966;2023-05-02T19:16:40;58.40;;;28.30;;
57889;SDS011;43707;50.184;18.966;2023-05-02T19:19:05;47.90;;;25.20;;
57889;SDS011;43707;50.184;18.966;2023-05-02T19:21:34;95.30;;;52.30;;
57889;SDS011;43707;50.184;18.966;2023-05-02T19:24:00;118.10;;;57.80;;
57889;SDS011;43707;50.184;18.966;2023-05-02T19:26:34;58.90;;;33.40;;
57889;SDS011;43707;50.184;18.966;2023-05-02T19:29:08;41.40;;;22.50;;
57889;SDS011;43707;50.184;18.966;2023-05-02T19:31:34;27.30;;;15.30;;
57889;SDS011;43707;50.184;18.966;2023-05-02T19:34:20;27.60;;;14.70;;
57889;SDS011;43707;50.184;18.966;2023-05-02T19:36:46;22.90;;;14.00;;
57889;SDS011;43707;50.184;18.966;2023-05-02T19:39:13;20.40;;;13.20;;
57889;SDS011;43707;50.184;18.966;2023-05-02T19:41:38;19.70;;;12.10;;
57889;SDS011;43707;50.184;18.966;2023-05-02T19:44:06;14.90;;;10.50;;
57889;SDS011;43707;50.184;18.966;2023-05-02T19:46:35;18.10;;;12.10;;
57889;SDS011;43707;50.184;18.966;2023-05-02T19:49:03;34.00;;;20.50;;
57889;SDS011;43707;50.184;18.966;2023-05-02T19:51:31;38.60;;;22.70;;
57889;SDS011;43707;50.184;18.966;2023-05-02T19:53:58;21.20;;;14.50;;
57889;SDS011;43707;50.184;18.966;2023-05-02T19:56:24;28.70;;;17.50;;
57889;SDS011;43707;50.184;18.966;2023-05-02T19:58:54;31.50;;;17.10;;
57889;SDS011;43707;50.184;18.966;2023-05-02T20:01:25;28.90;;;16.50;;
57889;SDS011;43707;50.184;18.966;2023-05-02T20:03:53;28.70;;;17.50;;
57889;SDS011;43707;50.184;18.966;2023-05-02T20:06:21;36.10;;;18.70;;
57889;SDS011;43707;50.184;18.966;2023-05-02T20:08:50;16.70;;;12.20;;
57889;SDS011;43707;50.184;18.966;2023-05-02T20:11:17;49.50;;;22.60;;
57889;SDS011;43707;50.184;18.966;2023-05-02T20:13:46;108.40;;;44.80;;
57889;SDS011;43707;50.184;18.966;2023-05-02T20:16:15;122.20;;;52.30;;
57889;SDS011;43707;50.184;18.966;2023-05-02T20:18:53;18.70;;;13.50;;
57889;SDS011;43707;50.184;18.966;2023-05-02T20:21:45;16.90;;;11.80;;
57889;SDS011;43707;50.184;18.966;2023-05-02T20:27:13;20.70;;;12.90;;
57889;SDS011;43707;50.184;18.966;2023-05-02T20:29:52;18.00;;;12.10;;
57889;SDS011;43707;50.184;18.966;2023-05-02T20:32:25;15.70;;;12.90;;
57889;SDS011;43707;50.184;18.966;2023-05-02T20:35:00;36.20;;;18.30;;
57889;SDS011;43707;50.184;18.966;2023-05-02T20:37:47;26.40;;;16.30;;
57889;SDS011;43707;50.184;18.966;2023-05-02T20:40:33;23.10;;;12.80;;
57889;SDS011;43707;50.184;18.966;2023-05-02T20:43:04;41.00;;;15.30;;
57889;SDS011;43707;50.184;18.966;2023-05-02T20:45:31;47.00;;;18.30;;
57889;SDS011;43707;50.184;18.966;2023-05-02T20:47:58;55.80;;;24.00;;
57889;SDS011;43707;50.184;18.966;2023-05-02T20:51:00;51.30;;;21.80;;
57889;SDS011;43707;50.184;18.966;2023-05-02T20:53:29;46.40;;;20.70;;
57889;SDS011;43707;50.184;18.966;2023-05-02T20:55:58;45.90;;;20.10;;
57889;SDS011;43707;50.184;18.966;2023-05-02T21:08:05;25.00;;;15.10;;
57889;SDS011;43707;50.184;18.966;2023-05-02T21:10:39;30.80;;;18.10;;
57889;SDS011;43707;50.184;18.966;2023-05-02T21:35:21;47.10;;;25.30;;
57889;SDS011;43707;50.184;18.966;2023-05-02T21:38:00;48.70;;;26.90;;
57889;SDS011;43707;50.184;18.966;2023-05-02T21:46:10;54.00;;;24.50;;
57889;SDS011;43707;50.184;18.966;2023-05-02T21:49:07;44.80;;;22.60;;
57889;SDS011;43707;50.184;18.966;2023-05-02T22:05:40;41.40;;;22.60;;
57889;SDS011;43707;50.184;18.966;2023-05-02T22:08:13;38.70;;;23.10;;
57889;SDS011;43707;50.184;18.966;2023-05-02T22:10:49;36.80;;;22.00;;
57889;SDS011;43707;50.184;18.966;2023-05-02T22:15:56;35.30;;;22.30;;
57889;SDS011;43707;50.184;18.966;2023-05-02T22:21:05;33.20;;;22.20;;
57889;SDS011;43707;50.184;18.966;2023-05-02T22:23:33;40.80;;;26.90;;
57889;SDS011;43707;50.184;18.966;2023-05-02T22:28:44;50.90;;;29.20;;
57889;SDS011;43707;50.184;18.966;2023-05-02T23:13:50;34.20;;;21.30;;
